createdAt,value
2018-09-18T00:00:07.654Z,1014.43
2018-09-18T00:01:07.578Z,1014.40
2018-09-18T00:02:08.424Z,1014.38
2018-09-18T00:03:08.420Z,1014.43
2018-09-18T00:04:08.420Z,1014.32
2018-09-18T00:05:07.491Z,1014.34
2018-09-18T00:06:07.395Z,1014.36
2018-09-18T00:07:07.919Z,1014.35
2018-09-18T00:08:08.013Z,1014.33
2018-09-18T00:09:07.313Z,1014.29
2018-09-18T00:10:07.331Z,1014.31
2018-09-18T00:11:07.262Z,1014.32
2018-09-18T00:12:07.283Z,1014.31
2018-09-18T00:13:07.921Z,1014.32
2018-09-18T00:14:07.174Z,1014.30
2018-09-18T00:15:07.922Z,1014.33
2018-09-18T00:16:07.481Z,1014.26
2018-09-18T00:17:07.934Z,1014.29
2018-09-18T00:18:07.066Z,1014.28
2018-09-18T00:19:07.042Z,1014.28
2018-09-18T00:20:07.014Z,1014.24
2018-09-18T00:21:07.024Z,1014.26
2018-09-18T00:22:07.487Z,1014.24
2018-09-18T00:23:07.437Z,1014.19
2018-09-18T00:24:06.899Z,1014.22
2018-09-18T00:25:06.871Z,1014.23
2018-09-18T00:26:07.428Z,1014.20
2018-09-18T00:27:06.870Z,1014.21
2018-09-18T00:28:07.429Z,1014.21
2018-09-18T00:29:07.422Z,1014.17
2018-09-18T00:30:07.434Z,1014.17
2018-09-18T00:31:07.428Z,1014.15
2018-09-18T00:32:06.999Z,1014.16
2018-09-18T00:33:06.691Z,1014.14
2018-09-18T00:34:07.463Z,1014.12
2018-09-18T00:35:06.593Z,1014.12
2018-09-18T00:36:07.431Z,1014.09
2018-09-18T00:37:06.597Z,1014.09
2018-09-18T00:38:06.512Z,1014.11
2018-09-18T00:39:07.433Z,1014.11
2018-09-18T00:40:07.429Z,1014.10
2018-09-18T00:41:06.936Z,1014.09
2018-09-18T00:42:06.484Z,1014.07
2018-09-18T00:43:06.490Z,1014.10
2018-09-18T00:44:06.339Z,1014.11
2018-09-18T00:45:06.309Z,1014.11
2018-09-18T00:46:06.289Z,1014.08
2018-09-18T00:47:06.935Z,1014.08
2018-09-18T00:48:06.277Z,1014.10
2018-09-18T00:49:06.486Z,1014.11
2018-09-18T00:50:06.170Z,1014.07
2018-09-18T00:51:06.933Z,1014.09
2018-09-18T00:52:06.930Z,1014.16
2018-09-18T00:53:06.087Z,1014.18
2018-09-18T00:54:06.480Z,1014.13
2018-09-18T00:55:06.031Z,1014.14
2018-09-18T00:56:06.935Z,1014.14
2018-09-18T00:57:06.927Z,1014.10
2018-09-18T00:58:06.933Z,1014.13
2018-09-18T00:59:05.990Z,1014.11
2018-09-18T01:00:05.917Z,1014.10
2018-09-18T01:01:05.871Z,1014.08
2018-09-18T01:02:05.839Z,1014.06
2018-09-18T01:03:05.814Z,1014.01
2018-09-18T01:04:05.840Z,1014.07
2018-09-18T01:05:06.434Z,1014.00
2018-09-18T01:06:06.445Z,1014.04
2018-09-18T01:07:05.700Z,1014.01
2018-09-18T01:08:06.431Z,1014.00
2018-09-18T01:09:06.007Z,1014.02
2018-09-18T01:10:05.607Z,1013.99
2018-09-18T01:11:06.429Z,1013.99
2018-09-18T01:12:06.434Z,1013.95
2018-09-18T01:13:06.435Z,1013.97
2018-09-18T01:14:05.555Z,1013.90
2018-09-18T01:15:06.431Z,1013.93
2018-09-18T01:16:06.432Z,1013.91
2018-09-18T01:17:05.443Z,1013.90
2018-09-18T01:18:05.403Z,1013.89
2018-09-18T01:19:05.417Z,1013.90
2018-09-18T01:20:05.937Z,1013.88
2018-09-18T01:21:05.321Z,1013.83
2018-09-18T01:22:05.276Z,1013.83
2018-09-18T01:23:05.935Z,1013.85
2018-09-18T01:24:05.501Z,1013.87
2018-09-18T01:25:05.188Z,1013.86
2018-09-18T01:26:05.162Z,1013.85
2018-09-18T01:27:05.182Z,1013.84
2018-09-18T01:28:05.203Z,1013.86
2018-09-18T01:29:05.484Z,1013.84
2018-09-18T01:30:05.051Z,1013.85
2018-09-18T01:31:05.935Z,1013.86
2018-09-18T01:32:04.992Z,1013.85
2018-09-18T01:33:04.974Z,1013.80
2018-09-18T01:34:04.938Z,1013.85
2018-09-18T01:35:04.957Z,1013.81
2018-09-18T01:36:05.442Z,1013.81
2018-09-18T01:37:05.433Z,1013.79
2018-09-18T01:38:04.829Z,1013.78
2018-09-18T01:39:04.987Z,1013.74
2018-09-18T01:40:05.432Z,1013.79
2018-09-18T01:41:04.743Z,1013.79
2018-09-18T01:42:04.991Z,1013.82
2018-09-18T01:43:04.683Z,1013.78
2018-09-18T01:44:05.440Z,1013.83
2018-09-18T01:45:04.630Z,1013.80
2018-09-18T01:46:04.650Z,1013.80
2018-09-18T01:47:04.569Z,1013.77
2018-09-18T01:48:05.441Z,1013.75
2018-09-18T01:49:05.435Z,1013.79
2018-09-18T01:50:07.434Z,1013.74
2018-09-18T01:51:04.524Z,1013.71
2018-09-18T01:52:04.432Z,1013.76
2018-09-18T01:53:04.940Z,1013.79
2018-09-18T01:54:04.374Z,1013.77
2018-09-18T01:55:04.345Z,1013.76
2018-09-18T01:56:04.499Z,1013.74
2018-09-18T01:57:04.936Z,1013.72
2018-09-18T01:58:04.271Z,1013.73
2018-09-18T01:59:04.235Z,1013.74
2018-09-18T02:00:04.213Z,1013.72
2018-09-18T02:01:04.498Z,1013.74
2018-09-18T02:02:04.941Z,1013.71
2018-09-18T02:03:04.949Z,1013.74
2018-09-18T02:04:04.109Z,1013.73
2018-09-18T02:05:04.066Z,1013.72
2018-09-18T02:06:04.510Z,1013.72
2018-09-18T02:07:04.937Z,1013.72
2018-09-18T02:08:04.026Z,1013.72
2018-09-18T02:09:03.998Z,1013.75
2018-09-18T02:10:03.930Z,1013.70
2018-09-18T02:11:03.896Z,1013.70
2018-09-18T02:12:03.912Z,1013.72
2018-09-18T02:13:03.841Z,1013.68
2018-09-18T02:14:03.995Z,1013.72
2018-09-18T02:15:03.786Z,1013.70
2018-09-18T02:16:03.755Z,1013.68
2018-09-18T02:17:04.475Z,1013.71
2018-09-18T02:18:03.704Z,1013.76
2018-09-18T02:19:03.717Z,1013.74
2018-09-18T02:20:03.648Z,1013.74
2018-09-18T02:21:03.618Z,1013.75
2018-09-18T02:22:04.444Z,1013.71
2018-09-18T02:23:03.560Z,1013.69
2018-09-18T02:24:04.499Z,1013.68
2018-09-18T02:25:03.507Z,1013.67
2018-09-18T02:26:03.481Z,1013.72
2018-09-18T02:27:04.446Z,1013.72
2018-09-18T02:28:03.425Z,1013.70
2018-09-18T02:29:03.510Z,1013.69
2018-09-18T02:30:03.945Z,1013.68
2018-09-18T02:31:03.944Z,1013.66
2018-09-18T02:32:03.311Z,1013.67
2018-09-18T02:33:03.944Z,1013.67
2018-09-18T02:34:03.314Z,1013.66
2018-09-18T02:35:03.944Z,1013.71
2018-09-18T02:36:03.944Z,1013.65
2018-09-18T02:37:03.186Z,1013.66
2018-09-18T02:38:03.201Z,1013.62
2018-09-18T02:39:03.944Z,1013.62
2018-09-18T02:40:03.943Z,1013.63
2018-09-18T02:41:03.957Z,1013.64
2018-09-18T02:42:03.028Z,1013.62
2018-09-18T02:43:03.499Z,1013.60
2018-09-18T02:44:02.976Z,1013.61
2018-09-18T02:45:03.446Z,1013.57
2018-09-18T02:46:02.938Z,1013.62
2018-09-18T02:47:03.009Z,1013.63
2018-09-18T02:48:03.446Z,1013.64
2018-09-18T02:49:02.847Z,1013.62
2018-09-18T02:50:03.448Z,1013.61
2018-09-18T02:51:02.826Z,1013.62
2018-09-18T02:52:03.451Z,1013.59
2018-09-18T02:53:03.463Z,1013.61
2018-09-18T02:54:02.695Z,1013.58
2018-09-18T02:55:03.000Z,1013.58
2018-09-18T02:56:03.001Z,1013.57
2018-09-18T02:57:03.450Z,1013.60
2018-09-18T02:58:02.578Z,1013.65
2018-09-18T02:59:02.567Z,1013.64
2018-09-18T03:00:02.568Z,1013.64
2018-09-18T03:01:02.495Z,1013.68
2018-09-18T03:02:02.472Z,1013.63
2018-09-18T03:03:02.486Z,1013.59
2018-09-18T03:04:02.949Z,1013.62
2018-09-18T03:05:02.387Z,1013.61
2018-09-18T03:06:02.402Z,1013.60
2018-09-18T03:07:02.331Z,1013.58
2018-09-18T03:08:02.305Z,1013.56
2018-09-18T03:09:02.300Z,1013.56
2018-09-18T03:10:02.505Z,1013.58
2018-09-18T03:11:02.253Z,1013.58
2018-09-18T03:12:02.190Z,1013.57
2018-09-18T03:13:02.163Z,1013.61
2018-09-18T03:14:02.152Z,1013.58
2018-09-18T03:15:02.155Z,1013.59
2018-09-18T03:16:02.144Z,1013.59
2018-09-18T03:17:02.956Z,1013.58
2018-09-18T03:18:02.021Z,1013.57
2018-09-18T03:19:01.998Z,1013.58
2018-09-18T03:20:02.949Z,1013.57
2018-09-18T03:21:02.030Z,1013.56
2018-09-18T03:22:01.907Z,1013.55
2018-09-18T03:23:01.889Z,1013.54
2018-09-18T03:24:01.869Z,1013.54
2018-09-18T03:25:02.456Z,1013.55
2018-09-18T03:26:01.840Z,1013.58
2018-09-18T03:27:01.770Z,1013.58
2018-09-18T03:28:02.483Z,1013.53
2018-09-18T03:29:01.728Z,1013.54
2018-09-18T03:30:02.463Z,1013.56
2018-09-18T03:31:02.013Z,1013.53
2018-09-18T03:32:01.630Z,1013.53
2018-09-18T03:33:01.600Z,1013.52
2018-09-18T03:34:01.570Z,1013.50
2018-09-18T03:35:02.463Z,1013.53
2018-09-18T03:36:02.019Z,1013.56
2018-09-18T03:37:01.532Z,1013.54
2018-09-18T03:38:02.465Z,1013.51
2018-09-18T03:39:01.434Z,1013.54
2018-09-18T03:40:01.406Z,1013.54
2018-09-18T03:41:01.376Z,1013.55
2018-09-18T03:42:01.517Z,1013.57
2018-09-18T03:43:01.320Z,1013.56
2018-09-18T03:44:01.958Z,1013.59
2018-09-18T03:45:01.269Z,1013.58
2018-09-18T03:46:01.956Z,1013.60
2018-09-18T03:47:01.545Z,1013.58
2018-09-18T03:48:01.970Z,1013.60
2018-09-18T03:49:01.959Z,1013.56
2018-09-18T03:50:01.963Z,1013.58
2018-09-18T03:51:01.106Z,1013.57
2018-09-18T03:52:01.507Z,1013.57
2018-09-18T03:53:01.519Z,1013.55
2018-09-18T03:54:01.019Z,1013.55
2018-09-18T03:55:00.992Z,1013.54
2018-09-18T03:56:00.954Z,1013.53
2018-09-18T03:57:00.987Z,1013.54
2018-09-18T03:58:01.460Z,1013.49
2018-09-18T03:59:00.877Z,1013.50
2018-09-18T04:00:01.514Z,1013.48
2018-09-18T04:01:00.820Z,1013.51
2018-09-18T04:02:01.017Z,1013.51
2018-09-18T04:03:01.541Z,1013.51
2018-09-18T04:04:01.022Z,1013.51
2018-09-18T04:05:00.719Z,1013.52
2018-09-18T04:06:01.468Z,1013.53
2018-09-18T04:07:00.649Z,1013.50
2018-09-18T04:08:00.619Z,1013.53
2018-09-18T04:09:01.061Z,1013.48
2018-09-18T04:10:00.567Z,1013.48
2018-09-18T04:11:01.503Z,1013.51
2018-09-18T04:12:00.511Z,1013.46
2018-09-18T04:13:00.479Z,1013.44
2018-09-18T04:14:00.501Z,1013.45
2018-09-18T04:15:00.539Z,1013.44
2018-09-18T04:16:00.978Z,1013.42
2018-09-18T04:17:00.366Z,1013.41
2018-09-18T04:18:00.964Z,1013.41
2018-09-18T04:19:02.019Z,1013.40
2018-09-18T04:20:00.336Z,1013.42
2018-09-18T04:21:00.270Z,1013.36
2018-09-18T04:22:00.227Z,1013.34
2018-09-18T04:23:00.969Z,1013.32
2018-09-18T04:24:00.172Z,1013.32
2018-09-18T04:25:00.525Z,1013.33
2018-09-18T04:26:00.160Z,1013.33
2018-09-18T04:27:00.967Z,1013.35
2018-09-18T04:28:00.978Z,1013.34
2018-09-18T04:29:00.030Z,1013.30
2018-09-18T04:30:00.050Z,1013.34
2018-09-18T04:30:59.976Z,1013.33
2018-09-18T04:32:00.467Z,1013.30
2018-09-18T04:32:59.918Z,1013.32
2018-09-18T04:33:59.902Z,1013.35
2018-09-18T04:34:59.909Z,1013.38
2018-09-18T04:35:59.848Z,1013.36
2018-09-18T04:36:59.808Z,1013.33
2018-09-18T04:38:00.468Z,1013.31
2018-09-18T04:39:00.468Z,1013.31
2018-09-18T04:39:59.771Z,1013.34
2018-09-18T04:40:59.745Z,1013.32
2018-09-18T04:42:00.467Z,1013.34
2018-09-18T04:43:00.473Z,1013.31
2018-09-18T04:44:00.474Z,1013.33
2018-09-18T04:44:59.590Z,1013.32
2018-09-18T04:45:59.640Z,1013.31
2018-09-18T04:46:59.528Z,1013.34
2018-09-18T04:47:59.503Z,1013.38
2018-09-18T04:48:59.978Z,1013.37
2018-09-18T04:49:59.449Z,1013.36
2018-09-18T04:50:59.541Z,1013.36
2018-09-18T04:52:00.173Z,1013.36
2018-09-18T04:52:59.378Z,1013.37
2018-09-18T04:53:59.337Z,1013.38
2018-09-18T04:54:59.326Z,1013.34
2018-09-18T04:55:59.355Z,1013.36
2018-09-18T04:56:59.272Z,1013.34
2018-09-18T04:57:59.220Z,1013.36
2018-09-18T04:58:59.192Z,1013.37
2018-09-18T04:59:59.167Z,1013.40
2018-09-18T05:00:59.527Z,1013.38
2018-09-18T05:01:59.230Z,1013.36
2018-09-18T05:02:59.147Z,1013.41
2018-09-18T05:03:59.978Z,1013.38
2018-09-18T05:04:59.032Z,1013.41
2018-09-18T05:05:58.998Z,1013.42
2018-09-18T05:06:59.030Z,1013.44
2018-09-18T05:07:59.478Z,1013.38
2018-09-18T05:08:58.914Z,1013.43
2018-09-18T05:09:59.476Z,1013.43
2018-09-18T05:10:59.475Z,1013.44
2018-09-18T05:11:58.889Z,1013.42
2018-09-18T05:12:59.476Z,1013.43
2018-09-18T05:13:59.510Z,1013.43
2018-09-18T05:14:58.744Z,1013.47
2018-09-18T05:15:58.718Z,1013.45
2018-09-18T05:16:58.742Z,1013.47
2018-09-18T05:17:59.477Z,1013.46
2018-09-18T05:18:58.627Z,1013.43
2018-09-18T05:19:58.601Z,1013.47
2018-09-18T05:20:58.583Z,1013.48
2018-09-18T05:21:58.599Z,1013.46
2018-09-18T05:22:59.478Z,1013.47
2018-09-18T05:23:59.480Z,1013.48
2018-09-18T05:24:58.505Z,1013.47
2018-09-18T05:25:58.980Z,1013.45
2018-09-18T05:26:58.976Z,1013.46
2018-09-18T05:27:58.978Z,1013.42
2018-09-18T05:28:58.354Z,1013.46
2018-09-18T05:29:58.328Z,1013.51
2018-09-18T05:30:58.302Z,1013.49
2018-09-18T05:31:58.271Z,1013.47
2018-09-18T05:32:58.303Z,1013.51
2018-09-18T05:33:58.219Z,1013.50
2018-09-18T05:34:58.195Z,1013.53
2018-09-18T05:35:58.169Z,1013.50
2018-09-18T05:36:58.132Z,1013.52
2018-09-18T05:37:58.163Z,1013.49
2018-09-18T05:38:58.085Z,1013.49
2018-09-18T05:39:58.099Z,1013.52
2018-09-18T05:40:58.024Z,1013.50
2018-09-18T05:41:58.039Z,1013.54
2018-09-18T05:42:58.480Z,1013.54
2018-09-18T05:43:58.029Z,1013.55
2018-09-18T05:44:58.479Z,1013.55
2018-09-18T05:45:57.939Z,1013.56
2018-09-18T05:46:57.855Z,1013.51
2018-09-18T05:47:57.881Z,1013.48
2018-09-18T05:48:57.801Z,1013.53
2018-09-18T05:49:57.771Z,1013.53
2018-09-18T05:50:57.784Z,1013.52
2018-09-18T05:51:58.488Z,1013.51
2018-09-18T05:52:58.484Z,1013.49
2018-09-18T05:53:58.481Z,1013.50
2018-09-18T05:54:58.485Z,1013.51
2018-09-18T05:55:57.658Z,1013.49
2018-09-18T05:56:58.481Z,1013.45
2018-09-18T05:57:58.480Z,1013.47
2018-09-18T05:58:58.036Z,1013.46
2018-09-18T05:59:57.509Z,1013.49
2018-09-18T06:00:57.984Z,1013.45
2018-09-18T06:01:57.445Z,1013.48
2018-09-18T06:02:57.461Z,1013.49
2018-09-18T06:03:57.441Z,1013.47
2018-09-18T06:04:57.376Z,1013.49
2018-09-18T06:05:57.343Z,1013.49
2018-09-18T06:06:57.358Z,1013.45
2018-09-18T06:07:57.289Z,1013.46
2018-09-18T06:08:57.272Z,1013.45
2018-09-18T06:09:57.286Z,1013.46
2018-09-18T06:10:57.284Z,1013.42
2018-09-18T06:11:57.190Z,1013.45
2018-09-18T06:12:57.160Z,1013.41
2018-09-18T06:13:57.128Z,1013.45
2018-09-18T06:14:57.168Z,1013.45
2018-09-18T06:15:57.082Z,1013.45
2018-09-18T06:16:57.048Z,1013.50
2018-09-18T06:17:57.024Z,1013.50
2018-09-18T06:18:57.193Z,1013.54
2018-09-18T06:19:56.966Z,1013.51
2018-09-18T06:20:56.941Z,1013.57
2018-09-18T06:21:56.916Z,1013.53
2018-09-18T06:22:57.045Z,1013.53
2018-09-18T06:23:56.864Z,1013.56
2018-09-18T06:24:57.039Z,1013.54
2018-09-18T06:25:56.810Z,1013.53
2018-09-18T06:26:57.059Z,1013.51
2018-09-18T06:27:56.760Z,1013.51
2018-09-18T06:28:56.728Z,1013.55
2018-09-18T06:29:56.704Z,1013.54
2018-09-18T06:30:56.726Z,1013.53
2018-09-18T06:31:56.651Z,1013.56
2018-09-18T06:32:57.043Z,1013.50
2018-09-18T06:33:56.598Z,1013.55
2018-09-18T06:34:57.494Z,1013.57
2018-09-18T06:35:57.491Z,1013.57
2018-09-18T06:36:56.622Z,1013.57
2018-09-18T06:37:56.551Z,1013.52
2018-09-18T06:38:56.469Z,1013.54
2018-09-18T06:39:56.442Z,1013.53
2018-09-18T06:40:56.454Z,1013.52
2018-09-18T06:41:56.428Z,1013.51
2018-09-18T06:42:56.369Z,1013.47
2018-09-18T06:43:57.001Z,1013.48
2018-09-18T06:44:56.303Z,1013.48
2018-09-18T06:45:56.279Z,1013.48
2018-09-18T06:46:56.304Z,1013.44
2018-09-18T06:47:56.260Z,1013.48
2018-09-18T06:48:56.208Z,1013.45
2018-09-18T06:49:56.176Z,1013.44
2018-09-18T06:50:56.145Z,1013.43
2018-09-18T06:51:56.189Z,1013.46
2018-09-18T06:52:56.092Z,1013.45
2018-09-18T06:53:56.091Z,1013.45
2018-09-18T06:54:56.049Z,1013.52
2018-09-18T06:55:56.994Z,1013.52
2018-09-18T06:56:56.057Z,1013.55
2018-09-18T06:57:56.024Z,1013.52
2018-09-18T06:58:55.996Z,1013.53
2018-09-18T06:59:55.922Z,1013.51
2018-09-18T07:00:55.890Z,1013.46
2018-09-18T07:01:55.857Z,1013.44
2018-09-18T07:02:55.843Z,1013.47
2018-09-18T07:03:55.857Z,1013.46
2018-09-18T07:04:55.801Z,1013.48
2018-09-18T07:05:55.756Z,1013.50
2018-09-18T07:06:55.728Z,1013.46
2018-09-18T07:07:55.711Z,1013.49
2018-09-18T07:08:55.722Z,1013.51
2018-09-18T07:09:55.688Z,1013.51
2018-09-18T07:10:55.626Z,1013.51
2018-09-18T07:11:56.500Z,1013.52
2018-09-18T07:12:55.572Z,1013.49
2018-09-18T07:13:55.597Z,1013.53
2018-09-18T07:14:55.570Z,1013.49
2018-09-18T07:15:55.497Z,1013.51
2018-09-18T07:16:55.475Z,1013.51
2018-09-18T07:17:55.460Z,1013.49
2018-09-18T07:18:55.461Z,1013.48
2018-09-18T07:19:55.448Z,1013.45
2018-09-18T07:20:55.368Z,1013.45
2018-09-18T07:21:55.344Z,1013.43
2018-09-18T07:22:55.999Z,1013.46
2018-09-18T07:23:55.303Z,1013.44
2018-09-18T07:24:55.394Z,1013.38
2018-09-18T07:25:55.244Z,1013.37
2018-09-18T07:26:56.002Z,1013.39
2018-09-18T07:27:55.188Z,1013.40
2018-09-18T07:28:55.218Z,1013.36
2018-09-18T07:29:55.137Z,1013.40
2018-09-18T07:30:55.144Z,1013.41
2018-09-18T07:31:55.090Z,1013.40
2018-09-18T07:32:55.061Z,1013.38
2018-09-18T07:33:55.137Z,1013.36
2018-09-18T07:34:55.035Z,1013.37
2018-09-18T07:35:54.990Z,1013.40
2018-09-18T07:36:54.960Z,1013.41
2018-09-18T07:37:54.947Z,1013.38
2018-09-18T07:38:54.962Z,1013.40
2018-09-18T07:39:54.931Z,1013.40
2018-09-18T07:40:54.902Z,1013.41
2018-09-18T07:41:54.839Z,1013.39
2018-09-18T07:42:54.811Z,1013.38
2018-09-18T07:43:54.789Z,1013.41
2018-09-18T07:44:54.807Z,1013.42
2018-09-18T07:45:54.795Z,1013.42
2018-09-18T07:46:54.729Z,1013.42
2018-09-18T07:47:54.689Z,1013.43
2018-09-18T07:48:54.664Z,1013.42
2018-09-18T07:49:55.072Z,1013.44
2018-09-18T07:50:54.664Z,1013.40
2018-09-18T07:51:54.593Z,1013.42
2018-09-18T07:52:54.565Z,1013.42
2018-09-18T07:53:54.559Z,1013.41
2018-09-18T07:54:54.515Z,1013.38
2018-09-18T07:55:54.541Z,1013.38
2018-09-18T07:56:54.470Z,1013.40
2018-09-18T07:57:54.452Z,1013.43
2018-09-18T07:58:54.425Z,1013.48
2018-09-18T07:59:54.400Z,1013.43
2018-09-18T08:00:54.426Z,1013.42
2018-09-18T08:01:54.364Z,1013.43
2018-09-18T08:02:54.325Z,1013.45
2018-09-18T08:03:54.303Z,1013.42
2018-09-18T08:04:54.279Z,1013.40
2018-09-18T08:05:54.302Z,1013.36
2018-09-18T08:06:54.233Z,1013.40
2018-09-18T08:07:54.207Z,1013.43
2018-09-18T08:08:54.186Z,1013.45
2018-09-18T08:09:55.086Z,1013.37
2018-09-18T08:10:54.256Z,1013.39
2018-09-18T08:11:54.110Z,1013.39
2018-09-18T08:12:54.090Z,1013.38
2018-09-18T08:13:54.105Z,1013.39
2018-09-18T08:14:54.043Z,1013.36
2018-09-18T08:15:54.013Z,1013.40
2018-09-18T08:16:54.049Z,1013.38
2018-09-18T08:17:54.513Z,1013.38
2018-09-18T08:18:54.032Z,1013.40
2018-09-18T08:19:53.921Z,1013.39
2018-09-18T08:20:53.904Z,1013.39
2018-09-18T08:21:53.941Z,1013.39
2018-09-18T08:22:53.852Z,1013.39
2018-09-18T08:23:53.825Z,1013.38
2018-09-18T08:24:53.817Z,1013.41
2018-09-18T08:25:53.782Z,1013.39
2018-09-18T08:26:54.099Z,1013.41
2018-09-18T08:27:53.732Z,1013.38
2018-09-18T08:28:53.711Z,1013.40
2018-09-18T08:29:53.694Z,1013.38
2018-09-18T08:30:53.666Z,1013.36
2018-09-18T08:31:53.712Z,1013.39
2018-09-18T08:32:53.661Z,1013.37
2018-09-18T08:33:53.598Z,1013.33
2018-09-18T08:34:53.586Z,1013.35
2018-09-18T08:35:54.518Z,1013.33
2018-09-18T08:36:53.592Z,1013.37
2018-09-18T08:37:54.016Z,1013.35
2018-09-18T08:38:53.485Z,1013.35
2018-09-18T08:39:54.073Z,1013.34
2018-09-18T08:40:53.468Z,1013.35
2018-09-18T08:41:53.468Z,1013.35
2018-09-18T08:42:53.460Z,1013.31
2018-09-18T08:43:54.047Z,1013.34
2018-09-18T08:44:53.352Z,1013.33
2018-09-18T08:45:54.034Z,1013.33
2018-09-18T08:46:53.589Z,1013.32
2018-09-18T08:47:53.323Z,1013.33
2018-09-18T08:48:53.289Z,1013.32
2018-09-18T08:49:53.285Z,1013.31
2018-09-18T08:50:53.212Z,1013.29
2018-09-18T08:51:53.211Z,1013.34
2018-09-18T08:52:53.181Z,1013.30
2018-09-18T08:53:53.214Z,1013.34
2018-09-18T08:54:53.138Z,1013.32
2018-09-18T08:55:53.124Z,1013.32
2018-09-18T08:56:53.077Z,1013.32
2018-09-18T08:57:53.106Z,1013.32
2018-09-18T08:58:53.033Z,1013.33
2018-09-18T08:59:53.018Z,1013.31
2018-09-18T09:00:53.002Z,1013.26
2018-09-18T09:01:53.046Z,1013.28
2018-09-18T09:02:52.959Z,1013.24
2018-09-18T09:03:52.952Z,1013.26
2018-09-18T09:04:53.002Z,1013.25
2018-09-18T09:05:52.922Z,1013.20
2018-09-18T09:06:52.884Z,1013.19
2018-09-18T09:07:52.930Z,1013.20
2018-09-18T09:08:52.936Z,1013.20
2018-09-18T09:09:52.844Z,1013.18
2018-09-18T09:10:52.808Z,1013.21
2018-09-18T09:11:52.797Z,1013.21
2018-09-18T09:12:52.741Z,1013.17
2018-09-18T09:13:52.707Z,1013.16
2018-09-18T09:14:53.496Z,1013.10
2018-09-18T09:15:53.544Z,1013.11
2018-09-18T09:16:52.679Z,1013.09
2018-09-18T09:17:52.631Z,1013.05
2018-09-18T09:18:52.600Z,1013.05
2018-09-18T09:19:52.645Z,1013.05
2018-09-18T09:20:52.682Z,1013.03
2018-09-18T09:21:52.651Z,1013.01
2018-09-18T09:22:52.584Z,1012.99
2018-09-18T09:23:52.492Z,1013.01
2018-09-18T09:24:52.513Z,1012.98
2018-09-18T09:25:52.531Z,1012.99
2018-09-18T09:26:52.430Z,1012.98
2018-09-18T09:27:52.477Z,1012.96
2018-09-18T09:28:52.403Z,1012.95
2018-09-18T09:29:52.432Z,1012.96
2018-09-18T09:30:52.425Z,1012.95
2018-09-18T09:31:52.324Z,1012.93
2018-09-18T09:32:52.335Z,1012.92
2018-09-18T09:33:52.303Z,1012.91
2018-09-18T09:34:52.281Z,1012.92
2018-09-18T09:35:52.281Z,1012.96
2018-09-18T09:36:52.232Z,1012.93
2018-09-18T09:37:52.214Z,1012.91
2018-09-18T09:38:52.224Z,1012.88
2018-09-18T09:39:52.201Z,1012.91
2018-09-18T09:40:52.129Z,1012.87
2018-09-18T09:41:52.110Z,1012.85
2018-09-18T09:42:52.094Z,1012.85
2018-09-18T09:43:52.099Z,1012.87
2018-09-18T09:44:52.605Z,1012.85
2018-09-18T09:45:52.028Z,1012.83
2018-09-18T09:46:52.008Z,1012.86
2018-09-18T09:47:52.087Z,1012.88
2018-09-18T09:48:51.969Z,1012.82
2018-09-18T09:49:51.942Z,1012.82
2018-09-18T09:50:51.937Z,1012.83
2018-09-18T09:51:52.541Z,1012.79
2018-09-18T09:52:52.099Z,1012.79
2018-09-18T09:53:51.902Z,1012.77
2018-09-18T09:54:51.844Z,1012.77
2018-09-18T09:55:51.821Z,1012.72
2018-09-18T09:56:51.876Z,1012.74
2018-09-18T09:57:51.777Z,1012.69
2018-09-18T09:58:51.805Z,1012.70
2018-09-18T09:59:51.737Z,1012.71
2018-09-18T10:00:52.544Z,1012.76
2018-09-18T10:01:51.704Z,1012.73
2018-09-18T10:02:51.740Z,1012.69
2018-09-18T10:03:51.699Z,1012.69
2018-09-18T10:04:51.632Z,1012.68
2018-09-18T10:05:51.614Z,1012.71
2018-09-18T10:06:51.592Z,1012.68
2018-09-18T10:07:51.609Z,1012.66
2018-09-18T10:08:51.588Z,1012.69
2018-09-18T10:09:51.538Z,1012.64
2018-09-18T10:10:51.749Z,1012.65
2018-09-18T10:11:51.489Z,1012.63
2018-09-18T10:12:51.537Z,1012.68
2018-09-18T10:13:51.492Z,1012.61
2018-09-18T10:14:51.495Z,1012.59
2018-09-18T10:15:51.407Z,1012.65
2018-09-18T10:16:51.432Z,1012.59
2018-09-18T10:17:51.381Z,1012.54
2018-09-18T10:18:51.350Z,1012.58
2018-09-18T10:19:51.373Z,1012.58
2018-09-18T10:20:51.307Z,1012.54
2018-09-18T10:21:51.284Z,1012.53
2018-09-18T10:22:51.406Z,1012.54
2018-09-18T10:23:51.253Z,1012.50
2018-09-18T10:24:51.273Z,1012.50
2018-09-18T10:25:51.242Z,1012.49
2018-09-18T10:26:51.228Z,1012.50
2018-09-18T10:27:51.601Z,1012.48
2018-09-18T10:28:51.146Z,1012.53
2018-09-18T10:29:51.119Z,1012.47
2018-09-18T10:30:51.117Z,1012.46
2018-09-18T10:31:51.099Z,1012.39
2018-09-18T10:32:51.605Z,1012.37
2018-09-18T10:33:51.547Z,1012.43
2018-09-18T10:34:51.042Z,1012.40
2018-09-18T10:35:51.099Z,1012.41
2018-09-18T10:36:51.028Z,1012.37
2018-09-18T10:37:51.104Z,1012.36
2018-09-18T10:38:50.943Z,1012.26
2018-09-18T10:39:50.921Z,1012.32
2018-09-18T10:40:51.066Z,1012.28
2018-09-18T10:41:50.899Z,1012.29
2018-09-18T10:42:51.006Z,1012.25
2018-09-18T10:43:50.846Z,1012.27
2018-09-18T10:44:50.847Z,1012.25
2018-09-18T10:45:50.821Z,1012.25
2018-09-18T10:46:50.786Z,1012.27
2018-09-18T10:47:50.809Z,1012.26
2018-09-18T10:48:50.740Z,1012.20
2018-09-18T10:49:50.724Z,1012.19
2018-09-18T10:50:50.706Z,1012.17
2018-09-18T10:51:50.700Z,1012.19
2018-09-18T10:52:51.109Z,1012.19
2018-09-18T10:53:50.644Z,1012.17
2018-09-18T10:54:50.621Z,1012.15
2018-09-18T10:55:50.604Z,1012.16
2018-09-18T10:56:50.588Z,1012.15
2018-09-18T10:57:50.606Z,1012.11
2018-09-18T10:58:50.591Z,1012.08
2018-09-18T10:59:50.553Z,1012.09
2018-09-18T11:00:50.530Z,1012.08
2018-09-18T11:01:50.581Z,1012.09
2018-09-18T11:02:50.477Z,1012.02
2018-09-18T11:03:50.486Z,1011.98
2018-09-18T11:04:50.428Z,1011.97
2018-09-18T11:05:50.421Z,1011.95
2018-09-18T11:06:50.413Z,1012.00
2018-09-18T11:07:50.509Z,1011.93
2018-09-18T11:08:50.510Z,1011.93
2018-09-18T11:09:50.330Z,1011.93
2018-09-18T11:10:50.308Z,1011.92
2018-09-18T11:11:50.374Z,1011.93
2018-09-18T11:12:50.277Z,1011.87
2018-09-18T11:13:50.385Z,1011.89
2018-09-18T11:14:50.314Z,1011.83
2018-09-18T11:15:50.294Z,1011.88
2018-09-18T11:16:50.307Z,1011.90
2018-09-18T11:17:50.180Z,1011.91
2018-09-18T11:18:50.217Z,1011.86
2018-09-18T11:19:50.148Z,1011.88
2018-09-18T11:20:50.153Z,1011.84
2018-09-18T11:21:50.185Z,1011.89
2018-09-18T11:22:50.080Z,1011.90
2018-09-18T11:23:50.117Z,1011.87
2018-09-18T11:24:50.062Z,1011.88
2018-09-18T11:25:50.107Z,1011.84
2018-09-18T11:26:50.056Z,1011.83
2018-09-18T11:27:49.990Z,1011.80
2018-09-18T11:28:49.964Z,1011.78
2018-09-18T11:29:49.989Z,1011.75
2018-09-18T11:30:50.594Z,1011.85
2018-09-18T11:31:49.912Z,1011.84
2018-09-18T11:32:50.027Z,1011.83
2018-09-18T11:33:49.932Z,1011.83
2018-09-18T11:34:49.912Z,1011.79
2018-09-18T11:35:49.837Z,1011.81
2018-09-18T11:36:50.568Z,1011.77
2018-09-18T11:37:49.794Z,1011.73
2018-09-18T11:38:49.773Z,1011.72
2018-09-18T11:39:49.805Z,1011.77
2018-09-18T11:40:49.779Z,1011.74
2018-09-18T11:41:49.714Z,1011.74
2018-09-18T11:42:49.701Z,1011.75
2018-09-18T11:43:49.686Z,1011.72
2018-09-18T11:44:49.660Z,1011.70
2018-09-18T11:45:49.806Z,1011.69
2018-09-18T11:46:50.702Z,1011.68
2018-09-18T11:47:49.609Z,1011.71
2018-09-18T11:48:49.592Z,1011.72
2018-09-18T11:49:49.566Z,1011.66
2018-09-18T11:50:49.604Z,1011.67
2018-09-18T11:51:50.075Z,1011.68
2018-09-18T11:52:49.550Z,1011.67
2018-09-18T11:53:49.488Z,1011.67
2018-09-18T11:54:49.468Z,1011.68
2018-09-18T11:55:49.650Z,1011.66
2018-09-18T11:56:49.537Z,1011.62
2018-09-18T11:57:49.416Z,1011.64
2018-09-18T11:58:49.393Z,1011.66
2018-09-18T11:59:49.408Z,1011.58
2018-09-18T12:00:49.405Z,1011.55
2018-09-18T12:01:49.333Z,1011.49
2018-09-18T12:02:49.413Z,1011.54
2018-09-18T12:03:49.298Z,1011.56
2018-09-18T12:04:49.304Z,1011.53